Terminal Aerodrome Forecast
Issued by NWS

Home | Current Version | Previous Version | Text Only | Print | Product List | Glossary On
Versions: 1 2 3 4 5 6 7 8 9 10 11 12 13 14 15 16 17 18 19
000
FTUS41 KPHI 242330
TAFPNE
TAF
KPNE 242330Z 2500/2524 32015G25KT P6SM SCT025 OVC050
      TEMPO 2500/2502 BKN025
     FM250200 32012G22KT P6SM BKN035
     FM250900 30010KT P6SM SCT025
      TEMPO 2509/2513 BKN025
     FM251300 29012G20KT P6SM SCT040
     FM252100 26008KT P6SM FEW050 BKN200=

USA.gov is the U.S. government's official web portal to all federal, state and local government web resources and services.